Time,TemperatureF,DewpointF,PressureIn,WindDirection,WindDirectionDegrees,WindSpeedMPH,WindSpeedGustMPH,Humidity,HourlyPrecipIn,Conditions,Clouds,dailyrainin,SolarRadiationWatts/m^2,SoftwareType,DateUTC
2013-03-28 12:02:00,59.0,24.0,-100.00,SSW,201,3.0,13.0,26,-99.99,,,0.00,766.000000,,2013-03-28 19:02:00,
2013-03-28 12:12:00,59.0,24.0,-100.00,SSW,201,3.0,13.0,26,-99.99,,,0.00,766.000000,,2013-03-28 19:12:00,
2013-03-28 12:22:00,59.0,24.0,-100.00,SSW,201,3.0,13.0,26,-99.99,,,0.00,766.000000,,2013-03-28 19:22:00,
2013-03-28 12:52:00,57.0,13.0,-100.00,SSE,152,3.0,12.0,17,0.00,,,-99.99,660.000000,,2013-03-28 19:52:00,
2013-03-28 13:53:00,64.0,18.0,-100.00,South,180,8.0,14.0,17,0.00,,,0.00,866.000000,,2013-03-28 20:53:00,
2013-03-28 14:02:00,64.0,18.0,-100.00,South,180,8.0,14.0,17,0.00,,,0.00,866.000000,,2013-03-28 21:02:00,
2013-03-28 14:12:00,64.0,18.0,-100.00,South,180,8.0,14.0,17,0.00,,,0.00,866.000000,,2013-03-28 21:12:00,
2013-03-28 14:22:00,64.0,18.0,-100.00,South,180,8.0,14.0,17,0.00,,,0.00,866.000000,,2013-03-28 21:22:00,
2013-03-28 14:53:00,63.0,15.0,-100.00,SSW,194,9.0,19.0,15,0.00,,,0.00,1030.000000,,2013-03-28 21:53:00,
2013-03-28 15:02:00,63.0,15.0,-100.00,SSW,194,9.0,19.0,15,0.00,,,0.00,1030.000000,,2013-03-28 22:02:00,
2013-03-28 15:52:00,66.0,19.0,-100.00,SW,221,11.0,18.0,16,0.00,,,0.00,1072.000000,,2013-03-28 22:52:00,
2013-03-28 16:02:00,66.0,19.0,-100.00,SW,221,11.0,18.0,16,0.00,,,0.00,1072.000000,,2013-03-28 23:02:00,
2013-03-28 16:12:00,66.0,19.0,-100.00,SW,221,11.0,18.0,16,0.00,,,0.00,1072.000000,,2013-03-28 23:12:00,
2013-03-28 16:21:00,66.0,19.0,-100.00,SW,221,11.0,18.0,16,0.00,,,0.00,1072.000000,,2013-03-28 23:21:00,
2013-03-28 16:52:00,62.0,15.0,-100.00,SSW,213,8.0,19.0,16,0.00,,,0.00,754.000000,,2013-03-28 23:52:00,
2013-03-28 17:02:00,62.0,15.0,-100.00,SSW,213,8.0,19.0,16,0.00,,,0.00,754.000000,,2013-03-29 00:02:00,
2013-03-28 17:12:00,62.0,15.0,-100.00,SSW,213,8.0,19.0,16,0.00,,,0.00,754.000000,,2013-03-29 00:12:00,
2013-03-28 17:22:00,62.0,15.0,-100.00,SSW,213,8.0,19.0,16,0.00,,,0.00,754.000000,,2013-03-29 00:22:00,
2013-03-28 17:52:00,62.0,27.0,-100.00,NW,325,14.0,19.0,26,0.00,,,-99.99,541.000000,,2013-03-29 00:52:00,
2013-03-28 18:02:00,62.0,27.0,-100.00,NW,325,14.0,19.0,26,0.00,,,-99.99,541.000000,,2013-03-29 01:02:00,
2013-03-28 18:12:00,62.0,27.0,-100.00,NW,325,14.0,19.0,26,0.00,,,-99.99,541.000000,,2013-03-29 01:12:00,
2013-03-28 18:22:00,62.0,27.0,-100.00,NW,325,14.0,19.0,26,0.00,,,-99.99,541.000000,,2013-03-29 01:22:00,
2013-03-28 18:52:00,58.0,26.0,-100.00,NNW,328,3.0,28.0,29,0.00,,,-99.99,193.000000,,2013-03-29 01:52:00,
2013-03-28 19:12:00,58.0,26.0,-100.00,NNW,328,3.0,28.0,29,0.00,,,-99.99,193.000000,,2013-03-29 02:12:00,
2013-03-28 19:21:00,58.0,26.0,-100.00,NNW,328,3.0,28.0,29,0.00,,,-99.99,193.000000,,2013-03-29 02:21:00,
2013-03-28 19:52:00,55.0,28.0,-100.00,West,264,9.0,21.0,35,0.00,,,-99.99,154.000000,,2013-03-29 02:52:00,
2013-03-28 20:02:00,55.0,28.0,-100.00,West,264,9.0,21.0,35,0.00,,,-99.99,154.000000,,2013-03-29 03:02:00,
2013-03-28 20:12:00,55.0,28.0,-100.00,West,264,9.0,21.0,35,0.00,,,-99.99,154.000000,,2013-03-29 03:12:00,
2013-03-28 20:21:00,55.0,28.0,-100.00,West,264,9.0,21.0,35,0.00,,,-99.99,154.000000,,2013-03-29 03:21:00,
2013-03-28 20:53:00,52.0,27.0,-100.00,East,90,10.0,14.0,38,0.00,,,-99.99,18.000000,,2013-03-29 03:53:00,
2013-03-28 21:02:00,52.0,27.0,-100.00,East,90,10.0,14.0,38,0.00,,,-99.99,18.000000,,2013-03-29 04:02:00,
2013-03-28 21:12:00,52.0,27.0,-100.00,East,90,10.0,14.0,38,0.00,,,-99.99,18.000000,,2013-03-29 04:12:00,
2013-03-28 21:22:00,52.0,27.0,-100.00,East,90,10.0,14.0,38,0.00,,,-99.99,18.000000,,2013-03-29 04:22:00,
2013-03-28 21:52:00,53.0,32.0,-100.00,WNW,301,5.0,17.0,44,0.00,,,-99.99,0.000000,,2013-03-29 04:52:00,
2013-03-28 22:02:00,53.0,32.0,-100.00,WNW,301,5.0,17.0,44,0.00,,,-99.99,0.000000,,2013-03-29 05:02:00,
2013-03-28 22:12:00,53.0,32.0,-100.00,WNW,301,5.0,17.0,44,0.00,,,-99.99,0.000000,,2013-03-29 05:12:00,
2013-03-28 22:22:00,53.0,32.0,-100.00,WNW,301,5.0,17.0,44,0.00,,,-99.99,0.000000,,2013-03-29 05:22:00,
2013-03-28 22:52:00,48.0,31.0,-100.00,WNW,300,4.0,14.0,51,0.00,,,-99.99,0.000000,,2013-03-29 05:52:00,
2013-03-28 23:02:00,48.0,31.0,-100.00,WNW,300,4.0,14.0,51,0.00,,,-99.99,0.000000,,2013-03-29 06:02:00,
2013-03-28 23:12:00,48.0,31.0,-100.00,WNW,300,4.0,14.0,51,0.00,,,-99.99,0.000000,,2013-03-29 06:12:00,
2013-03-28 23:22:00,48.0,31.0,-100.00,WNW,300,4.0,14.0,51,0.00,,,-99.99,0.000000,,2013-03-29 06:22:00,
2013-03-28 23:52:00,48.0,35.0,-100.00,South,178,5.0,9.0,60,0.00,,,-99.99,0.000000,,2013-03-29 06:52:00,